sensor_id;sensor_type;location;lat;lon;timestamp;pressure;altitude;pressure_sealevel;temperature
44791;BMP280;30510;37.536;-122.304;2022-08-03T00:01:00;101434.94;;;27.70
44791;BMP280;30510;37.536;-122.304;2022-08-03T00:03:25;101426.50;;;27.71
44791;BMP280;30510;37.536;-122.304;2022-08-03T00:05:51;101428.22;;;27.72
44791;BMP280;30510;37.536;-122.304;2022-08-03T00:08:16;101428.22;;;27.72
44791;BMP280;30510;37.536;-122.304;2022-08-03T00:10:42;101434.44;;;27.74
44791;BMP280;30510;37.536;-122.304;2022-08-03T00:13:07;101432.56;;;27.75
44791;BMP280;30510;37.536;-122.304;2022-08-03T00:15:33;101427.75;;;27.77
44791;BMP280;30510;37.536;-122.304;2022-08-03T00:17:58;101426.84;;;27.76
44791;BMP280;30510;37.536;-122.304;2022-08-03T00:20:23;101419.47;;;27.77
44791;BMP280;30510;37.536;-122.304;2022-08-03T00:22:49;101420.16;;;27.79
44791;BMP280;30510;37.536;-122.304;2022-08-03T00:25:15;101423.78;;;27.79
44791;BMP280;30510;37.536;-122.304;2022-08-03T00:27:40;101423.78;;;27.79
44791;BMP280;30510;37.536;-122.304;2022-08-03T00:30:06;101420.00;;;27.80
44791;BMP280;30510;37.536;-122.304;2022-08-03T00:32:31;101417.09;;;27.82
44791;BMP280;30510;37.536;-122.304;2022-08-03T00:34:57;101424.31;;;27.83
44791;BMP280;30510;37.536;-122.304;2022-08-03T00:37:22;101423.13;;;27.85
44791;BMP280;30510;37.536;-122.304;2022-08-03T00:39:48;101422.25;;;27.85
44791;BMP280;30510;37.536;-122.304;2022-08-03T00:42:13;101429.53;;;27.86
44791;BMP280;30510;37.536;-122.304;2022-08-03T00:44:39;101433.53;;;27.91
44791;BMP280;30510;37.536;-122.304;2022-08-03T00:47:05;101422.09;;;27.86
44791;BMP280;30510;37.536;-122.304;2022-08-03T00:49:31;101428.63;;;27.85
44791;BMP280;30510;37.536;-122.304;2022-08-03T00:51:56;101425.19;;;27.83
44791;BMP280;30510;37.536;-122.304;2022-08-03T00:54:22;101433.13;;;27.86
44791;BMP280;30510;37.536;-122.304;2022-08-03T00:56:48;101434.88;;;27.87
44791;BMP280;30510;37.536;-122.304;2022-08-03T00:59:14;101440.41;;;27.87
44791;BMP280;30510;37.536;-122.304;2022-08-03T01:01:40;101444.00;;;27.88
44791;BMP280;30510;37.536;-122.304;2022-08-03T01:04:05;101439.75;;;27.93
44791;BMP280;30510;37.536;-122.304;2022-08-03T01:06:42;101448.88;;;27.94
44791;BMP280;30510;37.536;-122.304;2022-08-03T01:09:11;101456.97;;;27.95
44791;BMP280;30510;37.536;-122.304;2022-08-03T01:14:17;101465.56;;;27.92
44791;BMP280;30510;37.536;-122.304;2022-08-03T01:19:30;101456.91;;;27.27
44791;BMP280;30510;37.536;-122.304;2022-08-03T01:31:58;101470.88;;;23.51
44791;BMP280;30510;37.536;-122.304;2022-08-03T01:34:26;101472.78;;;23.19
44791;BMP280;30510;37.536;-122.304;2022-08-03T01:36:52;101475.75;;;22.96
44791;BMP280;30510;37.536;-122.304;2022-08-03T01:39:20;101470.09;;;22.66
44791;BMP280;30510;37.536;-122.304;2022-08-03T01:41:52;101468.28;;;22.45
44791;BMP280;30510;37.536;-122.304;2022-08-03T01:44:19;101468.28;;;22.23
44791;BMP280;30510;37.536;-122.304;2022-08-03T01:46:46;101465.03;;;21.96
44791;BMP280;30510;37.536;-122.304;2022-08-03T01:49:12;101462.78;;;21.80
44791;BMP280;30510;37.536;-122.304;2022-08-03T01:51:38;101467.47;;;21.67
44791;BMP280;30510;37.536;-122.304;2022-08-03T01:54:04;101467.44;;;21.56
44791;BMP280;30510;37.536;-122.304;2022-08-03T01:56:32;101465.16;;;21.39
44791;BMP280;30510;37.536;-122.304;2022-08-03T01:58:57;101469.06;;;21.24
44791;BMP280;30510;37.536;-122.304;2022-08-03T02:01:25;101475.13;;;21.17
44791;BMP280;30510;37.536;-122.304;2022-08-03T02:03:51;101480.78;;;21.03
44791;BMP280;30510;37.536;-122.304;2022-08-03T02:06:16;101477.34;;;20.89
44791;BMP280;30510;37.536;-122.304;2022-08-03T02:08:44;101472.56;;;20.80
44791;BMP280;30510;37.536;-122.304;2022-08-03T02:11:11;101469.78;;;20.69
44791;BMP280;30510;37.536;-122.304;2022-08-03T02:13:37;101480.25;;;20.63
44791;BMP280;30510;37.536;-122.304;2022-08-03T02:16:03;101475.25;;;20.69
44791;BMP280;30510;37.536;-122.304;2022-08-03T02:18:30;101476.44;;;21.69
44791;BMP280;30510;37.536;-122.304;2022-08-03T02:20:55;101478.72;;;22.40
44791;BMP280;30510;37.536;-122.304;2022-08-03T02:23:21;101487.91;;;23.03
44791;BMP280;30510;37.536;-122.304;2022-08-03T02:25:56;101489.50;;;23.36
44791;BMP280;30510;37.536;-122.304;2022-08-03T02:28:25;101491.97;;;23.70
44791;BMP280;30510;37.536;-122.304;2022-08-03T02:30:52;101491.53;;;23.95
44791;BMP280;30510;37.536;-122.304;2022-08-03T02:33:19;101504.06;;;24.18
44791;BMP280;30510;37.536;-122.304;2022-08-03T02:35:46;101491.50;;;24.36
44791;BMP280;30510;37.536;-122.304;2022-08-03T02:38:12;101502.81;;;24.51
44791;BMP280;30510;37.536;-122.304;2022-08-03T02:40:39;101495.91;;;24.66
44791;BMP280;30510;37.536;-122.304;2022-08-03T02:43:06;101500.16;;;24.79
44791;BMP280;30510;37.536;-122.304;2022-08-03T02:45:34;101496.28;;;24.91
44791;BMP280;30510;37.536;-122.304;2022-08-03T02:48:02;101493.44;;;25.02
44791;BMP280;30510;37.536;-122.304;2022-08-03T02:50:28;101494.44;;;25.11
44791;BMP280;30510;37.536;-122.304;2022-08-03T02:52:53;101489.97;;;25.19
44791;BMP280;30510;37.536;-122.304;2022-08-03T02:55:20;101499.25;;;25.27
44791;BMP280;30510;37.536;-122.304;2022-08-03T02:57:46;101485.78;;;25.34
44791;BMP280;30510;37.536;-122.304;2022-08-03T03:00:12;101496.19;;;25.40
44791;BMP280;30510;37.536;-122.304;2022-08-03T03:02:38;101494.75;;;25.45
44791;BMP280;30510;37.536;-122.304;2022-08-03T03:05:04;101506.19;;;25.50
44791;BMP280;30510;37.536;-122.304;2022-08-03T03:07:30;101504.00;;;25.54
44791;BMP280;30510;37.536;-122.304;2022-08-03T03:09:55;101502.44;;;25.61
44791;BMP280;30510;37.536;-122.304;2022-08-03T03:12:21;101507.47;;;25.65
44791;BMP280;30510;37.536;-122.304;2022-08-03T03:14:46;101508.19;;;25.67
44791;BMP280;30510;37.536;-122.304;2022-08-03T03:17:12;101498.09;;;25.67
44791;BMP280;30510;37.536;-122.304;2022-08-03T03:19:39;101507.06;;;25.69
44791;BMP280;30510;37.536;-122.304;2022-08-03T03:22:06;101503.13;;;25.72
44791;BMP280;30510;37.536;-122.304;2022-08-03T03:24:32;101500.81;;;25.77
44791;BMP280;30510;37.536;-122.304;2022-08-03T03:26:58;101500.66;;;25.78
44791;BMP280;30510;37.536;-122.304;2022-08-03T03:29:24;101498.63;;;25.80
44791;BMP280;30510;37.536;-122.304;2022-08-03T03:31:49;101499.81;;;25.78
44791;BMP280;30510;37.536;-122.304;2022-08-03T03:34:15;101505.00;;;25.81
44791;BMP280;30510;37.536;-122.304;2022-08-03T03:36:41;101498.63;;;25.80
44791;BMP280;30510;37.536;-122.304;2022-08-03T03:39:06;101494.00;;;25.81
44791;BMP280;30510;37.536;-122.304;2022-08-03T03:41:32;101484.47;;;25.85
44791;BMP280;30510;37.536;-122.304;2022-08-03T03:43:57;101491.81;;;25.84
44791;BMP280;30510;37.536;-122.304;2022-08-03T03:46:23;101501.81;;;25.85
44791;BMP280;30510;37.536;-122.304;2022-08-03T03:48:49;101504.41;;;25.87
44791;BMP280;30510;37.536;-122.304;2022-08-03T03:51:14;101501.66;;;25.87
44791;BMP280;30510;37.536;-122.304;2022-08-03T03:53:40;101494.56;;;25.84
44791;BMP280;30510;37.536;-122.304;2022-08-03T03:56:17;101500.06;;;25.84
44791;BMP280;30510;37.536;-122.304;2022-08-03T03:58:43;101500.97;;;25.85
44791;BMP280;30510;37.536;-122.304;2022-08-03T04:01:08;101512.81;;;25.85
44791;BMP280;30510;37.536;-122.304;2022-08-03T04:03:34;101520.91;;;25.87
44791;BMP280;30510;37.536;-122.304;2022-08-03T04:06:00;101516.13;;;25.89
44791;BMP280;30510;37.536;-122.304;2022-08-03T04:08:25;101514.25;;;25.89
44791;BMP280;30510;37.536;-122.304;2022-08-03T04:13:19;101507.59;;;25.92
44791;BMP280;30510;37.536;-122.304;2022-08-03T04:15:45;101511.50;;;25.89
44791;BMP280;30510;37.536;-122.304;2022-08-03T04:18:13;101516.13;;;25.89
44791;BMP280;30510;37.536;-122.304;2022-08-03T04:20:39;101525.56;;;25.86
44791;BMP280;30510;37.536;-122.304;2022-08-03T04:23:09;101530.16;;;25.86
44791;BMP280;30510;37.536;-122.304;2022-08-03T04:25:36;101527.56;;;25.84
44791;BMP280;30510;37.536;-122.304;2022-08-03T04:28:02;101529.31;;;25.85
44791;BMP280;30510;37.536;-122.304;2022-08-03T04:30:29;101533.06;;;25.84
44791;BMP280;30510;37.536;-122.304;2022-08-03T04:32:56;101536.25;;;25.89
44791;BMP280;30510;37.536;-122.304;2022-08-03T04:35:22;101538.56;;;25.84
44791;BMP280;30510;37.536;-122.304;2022-08-03T04:37:48;101535.66;;;25.86
44791;BMP280;30510;37.536;-122.304;2022-08-03T04:40:24;101540.44;;;25.84
44791;BMP280;30510;37.536;-122.304;2022-08-03T04:42:52;101540.72;;;25.81
44791;BMP280;30510;37.536;-122.304;2022-08-03T04:45:18;101543.47;;;25.81
44791;BMP280;30510;37.536;-122.304;2022-08-03T04:47:43;101539.16;;;25.78
44791;BMP280;30510;37.536;-122.304;2022-08-03T04:50:09;101536.56;;;25.77
44791;BMP280;30510;37.536;-122.304;2022-08-03T04:52:35;101533.25;;;25.83
44791;BMP280;30510;37.536;-122.304;2022-08-03T04:55:01;101533.97;;;25.85
44791;BMP280;30510;37.536;-122.304;2022-08-03T04:57:26;101545.81;;;25.85
44791;BMP280;30510;37.536;-122.304;2022-08-03T04:59:52;101536.56;;;25.86
44791;BMP280;30510;37.536;-122.304;2022-08-03T05:02:18;101533.63;;;25.88
44791;BMP280;30510;37.536;-122.304;2022-08-03T05:04:43;101530.88;;;25.88
44791;BMP280;30510;37.536;-122.304;2022-08-03T05:07:08;101540.16;;;25.87
44791;BMP280;30510;37.536;-122.304;2022-08-03T05:09:34;101545.50;;;25.98
44791;BMP280;30510;37.536;-122.304;2022-08-03T05:11:59;101536.81;;;25.93
44791;BMP280;30510;37.536;-122.304;2022-08-03T05:14:25;101533.34;;;25.91
44791;BMP280;30510;37.536;-122.304;2022-08-03T05:16:50;101541.75;;;25.89
44791;BMP280;30510;37.536;-122.304;2022-08-03T05:19:15;101536.25;;;25.89
44791;BMP280;30510;37.536;-122.304;2022-08-03T05:21:41;101538.84;;;25.91
44791;BMP280;30510;37.536;-122.304;2022-08-03T05:24:07;101537.13;;;25.90
44791;BMP280;30510;37.536;-122.304;2022-08-03T05:26:32;101540.03;;;25.88
44791;BMP280;30510;37.536;-122.304;2022-08-03T05:28:57;101540.03;;;25.88
44791;BMP280;30510;37.536;-122.304;2022-08-03T05:31:23;101541.88;;;25.88
44791;BMP280;30510;37.536;-122.304;2022-08-03T05:33:48;101551.16;;;25.87
44791;BMP280;30510;37.536;-122.304;2022-08-03T05:36:14;101552.88;;;25.88
44791;BMP280;30510;37.536;-122.304;2022-08-03T05:38:39;101547.56;;;25.86
44791;BMP280;30510;37.536;-122.304;2022-08-03T05:41:04;101540.31;;;25.85
44791;BMP280;30510;37.536;-122.304;2022-08-03T05:43:30;101540.44;;;25.84
44791;BMP280;30510;37.536;-122.304;2022-08-03T05:45:55;101544.94;;;25.85
44791;BMP280;30510;37.536;-122.304;2022-08-03T05:48:21;101554.19;;;25.84
44791;BMP280;30510;37.536;-122.304;2022-08-03T05:50:46;101549.56;;;25.84
44791;BMP280;30510;37.536;-122.304;2022-08-03T05:53:11;101549.75;;;25.83
44791;BMP280;30510;37.536;-122.304;2022-08-03T05:55:37;101550.59;;;25.83
44791;BMP280;30510;37.536;-122.304;2022-08-03T05:58:02;101545.25;;;25.82
44791;BMP280;30510;37.536;-122.304;2022-08-03T06:00:28;101551.75;;;25.81
44791;BMP280;30510;37.536;-122.304;2022-08-03T06:02:53;101551.75;;;25.81
44791;BMP280;30510;37.536;-122.304;2022-08-03T06:05:18;101549.44;;;25.76
44791;BMP280;30510;37.536;-122.304;2022-08-03T06:07:44;101547.84;;;25.74
44791;BMP280;30510;37.536;-122.304;2022-08-03T06:10:09;101550.59;;;25.74
44791;BMP280;30510;37.536;-122.304;2022-08-03T06:12:35;101543.38;;;25.73
44791;BMP280;30510;37.536;-122.304;2022-08-03T06:15:00;101544.38;;;25.72
44791;BMP280;30510;37.536;-122.304;2022-08-03T06:17:26;101550.00;;;25.70
44791;BMP280;30510;37.536;-122.304;2022-08-03T06:19:51;101557.41;;;25.70
44791;BMP280;30510;37.536;-122.304;2022-08-03T06:22:17;101558.56;;;25.67
44791;BMP280;30510;37.536;-122.304;2022-08-03T06:24:42;101575.06;;;25.67
44791;BMP280;30510;37.536;-122.304;2022-08-03T06:27:08;101562.31;;;25.66
44791;BMP280;30510;37.536;-122.304;2022-08-03T06:29:33;101566.25;;;25.64
44791;BMP280;30510;37.536;-122.304;2022-08-03T06:31:58;101552.50;;;25.64
44791;BMP280;30510;37.536;-122.304;2022-08-03T06:34:24;101563.78;;;25.61
44791;BMP280;30510;37.536;-122.304;2022-08-03T06:36:49;101572.25;;;25.58
44791;BMP280;30510;37.536;-122.304;2022-08-03T06:39:15;101559.56;;;25.57
44791;BMP280;30510;37.536;-122.304;2022-08-03T06:41:40;101561.41;;;25.57
44791;BMP280;30510;37.536;-122.304;2022-08-03T06:44:05;101554.19;;;25.56
44791;BMP280;30510;37.536;-122.304;2022-08-03T06:46:31;101551.59;;;25.54
44791;BMP280;30510;37.536;-122.304;2022-08-03T06:48:56;101556.34;;;25.52
44791;BMP280;30510;37.536;-122.304;2022-08-03T06:51:21;101556.34;;;25.52
44791;BMP280;30510;37.536;-122.304;2022-08-03T06:53:47;101553.63;;;25.52
44791;BMP280;30510;37.536;-122.304;2022-08-03T06:56:12;101551.88;;;25.51
44791;BMP280;30510;37.536;-122.304;2022-08-03T06:58:38;101551.16;;;25.49
44791;BMP280;30510;37.536;-122.304;2022-08-03T07:01:03;101553.03;;;25.49
44791;BMP280;30510;37.536;-122.304;2022-08-03T07:03:28;101563.31;;;25.47
44791;BMP280;30510;37.536;-122.304;2022-08-03T07:05:54;101573.41;;;25.46
44791;BMP280;30510;37.536;-122.304;2022-08-03T07:08:19;101566.19;;;25.45
44791;BMP280;30510;37.536;-122.304;2022-08-03T07:10:45;101557.38;;;25.42
44791;BMP280;30510;37.536;-122.304;2022-08-03T07:13:10;101559.97;;;25.43
44791;BMP280;30510;37.536;-122.304;2022-08-03T07:15:36;101547.25;;;25.42
44791;BMP280;30510;37.536;-122.304;2022-08-03T07:18:01;101562.00;;;25.41
44791;BMP280;30510;37.536;-122.304;2022-08-03T07:20:27;101553.75;;;25.41
44791;BMP280;30510;37.536;-122.304;2022-08-03T07:22:52;101556.78;;;25.38
44791;BMP280;30510;37.536;-122.304;2022-08-03T07:25:18;101554.75;;;25.40
44791;BMP280;30510;37.536;-122.304;2022-08-03T07:27:43;101543.06;;;25.38
44791;BMP280;30510;37.536;-122.304;2022-08-03T07:30:09;101534.94;;;25.37
44791;BMP280;30510;37.536;-122.304;2022-08-03T07:32:35;101536.13;;;25.34
44791;BMP280;30510;37.536;-122.304;2022-08-03T07:35:01;101540.72;;;25.34
44791;BMP280;30510;37.536;-122.304;2022-08-03T07:37:27;101545.50;;;25.32
44791;BMP280;30510;37.536;-122.304;2022-08-03T07:39:52;101540.31;;;25.29
44791;BMP280;30510;37.536;-122.304;2022-08-03T07:42:18;101538.41;;;25.29
44791;BMP280;30510;37.536;-122.304;2022-08-03T07:44:43;101544.06;;;25.28
44791;BMP280;30510;37.536;-122.304;2022-08-03T07:47:08;101556.22;;;25.25
44791;BMP280;30510;37.536;-122.304;2022-08-03T07:49:37;101562.44;;;25.27
44791;BMP280;30510;37.536;-122.304;2022-08-03T07:52:03;101554.47;;;25.24
44791;BMP280;30510;37.536;-122.304;2022-08-03T07:54:28;101564.88;;;25.21
44791;BMP280;30510;37.536;-122.304;2022-08-03T07:56:54;101553.03;;;25.20
44791;BMP280;30510;37.536;-122.304;2022-08-03T07:59:19;101548.53;;;25.19
44791;BMP280;30510;37.536;-122.304;2022-08-03T08:01:44;101545.78;;;25.19
44791;BMP280;30510;37.536;-122.304;2022-08-03T08:04:10;101544.06;;;25.19
44791;BMP280;30510;37.536;-122.304;2022-08-03T08:06:35;101549.56;;;25.19
44791;BMP280;30510;37.536;-122.304;2022-08-03T08:09:01;101549.97;;;25.14
44791;BMP280;30510;37.536;-122.304;2022-08-03T08:11:26;101554.59;;;25.14
44791;BMP280;30510;37.536;-122.304;2022-08-03T08:13:52;101548.38;;;25.12
44791;BMP280;30510;37.536;-122.304;2022-08-03T08:16:17;101538.41;;;25.11
44791;BMP280;30510;37.536;-122.304;2022-08-03T08:18:42;101532.91;;;25.11
44791;BMP280;30510;37.536;-122.304;2022-08-03T08:21:08;101532.19;;;25.09
44791;BMP280;30510;37.536;-122.304;2022-08-03T08:23:33;101535.91;;;25.08
44791;BMP280;30510;37.536;-122.304;2022-08-03T08:25:58;101528.72;;;25.07
44791;BMP280;30510;37.536;-122.304;2022-08-03T08:28:24;101521.47;;;25.06
44791;BMP280;30510;37.536;-122.304;2022-08-03T08:30:49;101514.25;;;25.05
44791;BMP280;30510;37.536;-122.304;2022-08-03T08:33:15;101511.66;;;25.03
44791;BMP280;30510;37.536;-122.304;2022-08-03T08:35:40;101522.06;;;25.00
44791;BMP280;30510;37.536;-122.304;2022-08-03T08:38:05;101522.06;;;25.00
44791;BMP280;30510;37.536;-122.304;2022-08-03T08:40:31;101520.31;;;24.99
44791;BMP280;30510;37.536;-122.304;2022-08-03T08:42:56;101513.94;;;24.98
44791;BMP280;30510;37.536;-122.304;2022-08-03T08:45:21;101518.84;;;24.95
44791;BMP280;30510;37.536;-122.304;2022-08-03T08:47:48;101522.56;;;24.94
44791;BMP280;30510;37.536;-122.304;2022-08-03T08:50:16;101526.22;;;24.94
44791;BMP280;30510;37.536;-122.304;2022-08-03T08:52:42;101528.19;;;24.92
44791;BMP280;30510;37.536;-122.304;2022-08-03T08:55:12;101526.59;;;24.90
44791;BMP280;30510;37.536;-122.304;2022-08-03T08:57:43;101519.38;;;24.89
44791;BMP280;30510;37.536;-122.304;2022-08-03T09:00:09;101521.13;;;24.90
44791;BMP280;30510;37.536;-122.304;2022-08-03T09:02:35;101518.78;;;24.85
44791;BMP280;30510;37.536;-122.304;2022-08-03T09:05:00;101523.41;;;24.85
44791;BMP280;30510;37.536;-122.304;2022-08-03T09:07:26;101526.44;;;24.82
44791;BMP280;30510;37.536;-122.304;2022-08-03T09:09:52;101522.25;;;24.78
44791;BMP280;30510;37.536;-122.304;2022-08-03T09:12:17;101526.00;;;24.77
44791;BMP280;30510;37.536;-122.304;2022-08-03T09:14:43;101515.31;;;24.74
44791;BMP280;30510;37.536;-122.304;2022-08-03T09:17:08;101504.31;;;24.74
44791;BMP280;30510;37.536;-122.304;2022-08-03T09:19:34;101511.69;;;24.74
44791;BMP280;30510;37.536;-122.304;2022-08-03T09:22:08;101511.84;;;24.72
44791;BMP280;30510;37.536;-122.304;2022-08-03T09:24:34;101509.22;;;24.71
44791;BMP280;30510;37.536;-122.304;2022-08-03T09:26:59;101504.16;;;24.66
44791;BMP280;30510;37.536;-122.304;2022-08-03T09:29:24;101507.78;;;24.67
44791;BMP280;30510;37.536;-122.304;2022-08-03T09:31:58;101501.41;;;24.66
44791;BMP280;30510;37.536;-122.304;2022-08-03T09:34:24;101505.31;;;24.64
44791;BMP280;30510;37.536;-122.304;2022-08-03T09:36:49;101502.44;;;24.65
44791;BMP280;30510;37.536;-122.304;2022-08-03T09:39:16;101496.94;;;24.65
44791;BMP280;30510;37.536;-122.304;2022-08-03T09:41:43;101504.28;;;24.65
44791;BMP280;30510;37.536;-122.304;2022-08-03T09:44:08;101492.56;;;24.63
44791;BMP280;30510;37.536;-122.304;2022-08-03T09:46:50;101492.88;;;24.60
44791;BMP280;30510;37.536;-122.304;2022-08-03T09:49:15;101499.09;;;24.62
44791;BMP280;30510;37.536;-122.304;2022-08-03T09:51:41;101497.22;;;24.62
44791;BMP280;30510;37.536;-122.304;2022-08-03T09:54:06;101498.50;;;24.58
44791;BMP280;30510;37.536;-122.304;2022-08-03T09:56:38;101504.25;;;24.55
44791;BMP280;30510;37.536;-122.304;2022-08-03T09:59:04;101508.91;;;24.55
44791;BMP280;30510;37.536;-122.304;2022-08-03T10:01:33;101511.50;;;24.56
44791;BMP280;30510;37.536;-122.304;2022-08-03T10:03:58;101511.03;;;24.51
44791;BMP280;30510;37.536;-122.304;2022-08-03T10:06:24;101506.81;;;24.47
44791;BMP280;30510;37.536;-122.304;2022-08-03T10:11:33;101503.47;;;24.44
44791;BMP280;30510;37.536;-122.304;2022-08-03T10:13:59;101506.22;;;24.44
44791;BMP280;30510;37.536;-122.304;2022-08-03T10:16:25;101507.38;;;24.41
44791;BMP280;30510;37.536;-122.304;2022-08-03T10:18:50;101497.56;;;24.39
44791;BMP280;30510;37.536;-122.304;2022-08-03T10:21:16;101511.13;;;24.40
44791;BMP280;30510;37.536;-122.304;2022-08-03T10:23:43;101504.06;;;24.38
44791;BMP280;30510;37.536;-122.304;2022-08-03T10:26:09;101507.66;;;24.38
44791;BMP280;30510;37.536;-122.304;2022-08-03T10:28:38;101501.44;;;24.37
44791;BMP280;30510;37.536;-122.304;2022-08-03T10:31:04;101498.84;;;24.35
44791;BMP280;30510;37.536;-122.304;2022-08-03T10:33:31;101497.50;;;24.30
44791;BMP280;30510;37.536;-122.304;2022-08-03T10:35:58;101495.50;;;24.32
44791;BMP280;30510;37.536;-122.304;2022-08-03T10:38:39;101486.69;;;24.28
44791;BMP280;30510;37.536;-122.304;2022-08-03T10:41:07;101491.16;;;24.29
44791;BMP280;30510;37.536;-122.304;2022-08-03T10:44:19;101483.78;;;24.30
44791;BMP280;30510;37.536;-122.304;2022-08-03T10:46:19;101479.84;;;24.23
44791;BMP280;30510;37.536;-122.304;2022-08-03T10:48:45;101481.00;;;24.20
44791;BMP280;30510;37.536;-122.304;2022-08-03T10:51:12;101483.59;;;24.22
44791;BMP280;30510;37.536;-122.304;2022-08-03T10:53:38;101482.59;;;24.23
44791;BMP280;30510;37.536;-122.304;2022-08-03T10:56:04;101478.38;;;24.19
44791;BMP280;30510;37.536;-122.304;2022-08-03T11:01:08;101467.41;;;24.19
44791;BMP280;30510;37.536;-122.304;2022-08-03T11:06:18;101472.91;;;24.19
44791;BMP280;30510;37.536;-122.304;2022-08-03T11:08:45;101476.94;;;24.15
44791;BMP280;30510;37.536;-122.304;2022-08-03T11:16:25;101459.88;;;24.11
44791;BMP280;30510;37.536;-122.304;2022-08-03T11:19:10;101461.28;;;24.06
44791;BMP280;30510;37.536;-122.304;2022-08-03T11:35:06;101445.25;;;24.01
44791;BMP280;30510;37.536;-122.304;2022-08-03T11:37:31;101445.50;;;23.98
44791;BMP280;30510;37.536;-122.304;2022-08-03T11:39:57;101448.69;;;23.94
44791;BMP280;30510;37.536;-122.304;2022-08-03T11:44:51;101447.97;;;23.92
44791;BMP280;30510;37.536;-122.304;2022-08-03T11:47:17;101450.72;;;23.92
44791;BMP280;30510;37.536;-122.304;2022-08-03T11:49:54;101457.44;;;23.88
44791;BMP280;30510;37.536;-122.304;2022-08-03T11:52:19;101462.06;;;23.88
44791;BMP280;30510;37.536;-122.304;2022-08-03T11:54:46;101455.44;;;23.90
44791;BMP280;30510;37.536;-122.304;2022-08-03T11:57:27;101455.44;;;23.90
44791;BMP280;30510;37.536;-122.304;2022-08-03T11:59:52;101456.59;;;23.88
44791;BMP280;30510;37.536;-122.304;2022-08-03T12:02:17;101456.00;;;23.84
44791;BMP280;30510;37.536;-122.304;2022-08-03T12:07:14;101468.09;;;23.82
44791;BMP280;30510;37.536;-122.304;2022-08-03T12:09:39;101473.59;;;23.82
44791;BMP280;30510;37.536;-122.304;2022-08-03T12:12:05;101470.06;;;23.80
44791;BMP280;30510;37.536;-122.304;2022-08-03T12:14:30;101468.50;;;23.77
44791;BMP280;30510;37.536;-122.304;2022-08-03T12:16:56;101476.72;;;23.77
44791;BMP280;30510;37.536;-122.304;2022-08-03T12:19:21;101468.63;;;23.76
44791;BMP280;30510;37.536;-122.304;2022-08-03T12:21:47;101460.28;;;23.77
44791;BMP280;30510;37.536;-122.304;2022-08-03T12:24:12;101455.19;;;23.73
44791;BMP280;30510;37.536;-122.304;2022-08-03T12:26:48;101456.19;;;23.72
44791;BMP280;30510;37.536;-122.304;2022-08-03T12:29:17;101455.34;;;23.71
44791;BMP280;30510;37.536;-122.304;2022-08-03T12:31:42;101462.97;;;23.68
44791;BMP280;30510;37.536;-122.304;2022-08-03T12:34:08;101462.81;;;23.69
44791;BMP280;30510;37.536;-122.304;2022-08-03T12:36:34;101472.31;;;23.65
44791;BMP280;30510;37.536;-122.304;2022-08-03T12:39:04;101468.59;;;23.66
44791;BMP280;30510;37.536;-122.304;2022-08-03T12:41:31;101468.59;;;23.66
44791;BMP280;30510;37.536;-122.304;2022-08-03T12:43:57;101471.44;;;23.65
44791;BMP280;30510;37.536;-122.304;2022-08-03T12:46:22;101470.59;;;23.64
44791;BMP280;30510;37.536;-122.304;2022-08-03T12:49:06;101475.47;;;23.61
44791;BMP280;30510;37.536;-122.304;2022-08-03T12:51:33;101483.53;;;23.62
44791;BMP280;30510;37.536;-122.304;2022-08-03T12:53:59;101477.66;;;23.67
44791;BMP280;30510;37.536;-122.304;2022-08-03T12:56:25;101482.66;;;23.62
44791;BMP280;30510;37.536;-122.304;2022-08-03T12:58:50;101487.16;;;23.63
44791;BMP280;30510;37.536;-122.304;2022-08-03T13:01:16;101484.41;;;23.63
44791;BMP280;30510;37.536;-122.304;2022-08-03T13:03:45;101489.28;;;23.59
44791;BMP280;30510;37.536;-122.304;2022-08-03T13:06:11;101488.28;;;23.60
44791;BMP280;30510;37.536;-122.304;2022-08-03T13:08:37;101492.13;;;23.58
44791;BMP280;30510;37.536;-122.304;2022-08-03T13:11:22;101492.78;;;23.61
44791;BMP280;30510;37.536;-122.304;2022-08-03T13:13:48;101492.03;;;23.59
44791;BMP280;30510;37.536;-122.304;2022-08-03T13:16:13;101494.41;;;23.53
44791;BMP280;30510;37.536;-122.304;2022-08-03T13:18:39;101496.00;;;23.55
44791;BMP280;30510;37.536;-122.304;2022-08-03T13:21:04;101492.03;;;23.49
44791;BMP280;30510;37.536;-122.304;2022-08-03T13:23:29;101498.53;;;23.48
44791;BMP280;30510;37.536;-122.304;2022-08-03T13:25:55;101495.81;;;23.48
44791;BMP280;30510;37.536;-122.304;2022-08-03T13:28:20;101496.66;;;23.48
44791;BMP280;30510;37.536;-122.304;2022-08-03T13:30:46;101489.59;;;23.46
44791;BMP280;30510;37.536;-122.304;2022-08-03T13:33:11;101501.28;;;23.48
44791;BMP280;30510;37.536;-122.304;2022-08-03T13:35:36;101491.59;;;23.44
44791;BMP280;30510;37.536;-122.304;2022-08-03T13:38:02;101504.69;;;23.40
44791;BMP280;30510;37.536;-122.304;2022-08-03T13:40:27;101509.03;;;23.43
44791;BMP280;30510;37.536;-122.304;2022-08-03T13:42:53;101510.16;;;23.40
44791;BMP280;30510;37.536;-122.304;2022-08-03T13:45:18;101499.47;;;23.37
44791;BMP280;30510;37.536;-122.304;2022-08-03T13:47:43;101507.56;;;23.39
44791;BMP280;30510;37.536;-122.304;2022-08-03T13:50:09;101504.34;;;23.34
44791;BMP280;30510;37.536;-122.304;2022-08-03T13:52:34;101500.88;;;23.32
44791;BMP280;30510;37.536;-122.304;2022-08-03T13:55:01;101506.53;;;23.40
44791;BMP280;30510;37.536;-122.304;2022-08-03T13:57:26;101506.81;;;23.37
44791;BMP280;30510;37.536;-122.304;2022-08-03T13:59:52;101500.59;;;23.35
44791;BMP280;30510;37.536;-122.304;2022-08-03T14:02:17;101498.00;;;23.33
44791;BMP280;30510;37.536;-122.304;2022-08-03T14:04:43;101497.09;;;23.33
44791;BMP280;30510;37.536;-122.304;2022-08-03T14:07:08;101496.84;;;23.36